createdAt,value
2019-05-26T00:00:00.858Z,1012.56
2019-05-26T00:01:01.703Z,1012.56
2019-05-26T00:02:00.685Z,1012.60
2019-05-26T00:03:00.562Z,1012.54
2019-05-26T00:04:00.553Z,1012.52
2019-05-26T00:05:00.560Z,1012.54
2019-05-26T00:06:00.539Z,1012.50
2019-05-26T00:07:00.514Z,1012.46
2019-05-26T00:08:00.505Z,1012.48
2019-05-26T00:09:00.490Z,1012.50
2019-05-26T00:10:00.517Z,1012.50
2019-05-26T00:11:00.471Z,1012.48
2019-05-26T00:12:00.472Z,1012.54
2019-05-26T00:13:00.451Z,1012.50
2019-05-26T00:14:00.439Z,1012.52
2019-05-26T00:15:09.406Z,1012.43
2019-05-26T00:16:00.445Z,1012.51
2019-05-26T00:17:08.048Z,1012.43
2019-05-26T00:18:00.401Z,1012.45
2019-05-26T00:19:08.138Z,1012.46
2019-05-26T00:20:00.409Z,1012.46
2019-05-26T00:21:07.920Z,1012.46
2019-05-26T00:22:00.360Z,1012.47
2019-05-26T00:23:07.529Z,1012.43
2019-05-26T00:24:00.335Z,1012.43
2019-05-26T00:25:00.348Z,1012.40
2019-05-26T00:26:07.875Z,1012.39
2019-05-26T00:27:00.337Z,1012.35
2019-05-26T00:29:17.713Z,1012.35
2019-05-26T00:30:24.219Z,1012.37
2019-05-26T00:31:16.640Z,1012.39
2019-05-26T00:32:16.608Z,1012.39
2019-05-26T00:33:16.617Z,1012.36
2019-05-26T00:34:16.589Z,1012.37
2019-05-26T00:35:16.576Z,1012.33
2019-05-26T00:36:16.603Z,1012.32
2019-05-26T00:37:16.575Z,1012.36
2019-05-26T00:38:16.562Z,1012.31
2019-05-26T00:39:16.536Z,1012.34
2019-05-26T00:40:16.522Z,1012.28
2019-05-26T00:41:16.534Z,1012.28
2019-05-26T00:42:16.508Z,1012.29
2019-05-26T00:43:16.523Z,1012.30
2019-05-26T00:44:16.480Z,1012.34
2019-05-26T00:45:16.476Z,1012.33
2019-05-26T00:46:16.484Z,1012.37
2019-05-26T00:47:16.460Z,1012.35
2019-05-26T00:48:16.439Z,1012.36
2019-05-26T00:49:16.471Z,1012.42
2019-05-26T00:50:16.428Z,1012.38
2019-05-26T00:51:23.989Z,1012.40
2019-05-26T00:52:16.448Z,1012.38
2019-05-26T00:53:23.942Z,1012.35
2019-05-26T00:54:16.437Z,1012.44
2019-05-26T00:55:16.366Z,1012.43
2019-05-26T00:56:16.381Z,1012.41
2019-05-26T00:57:16.346Z,1012.39
2019-05-26T00:58:16.338Z,1012.41
2019-05-26T00:59:16.325Z,1012.34
2019-05-26T01:00:16.320Z,1012.38
2019-05-26T01:01:16.302Z,1012.40
2019-05-26T01:02:23.908Z,1012.39
2019-05-26T01:03:16.293Z,1012.38
2019-05-26T01:04:23.852Z,1012.40
2019-05-26T01:05:16.300Z,1012.36
2019-05-26T01:06:23.790Z,1012.35
2019-05-26T01:07:16.271Z,1012.33
2019-05-26T01:08:23.773Z,1012.42
2019-05-26T01:09:16.227Z,1012.34
2019-05-26T01:10:16.213Z,1012.34
2019-05-26T01:11:24.095Z,1012.40
2019-05-26T01:12:16.206Z,1012.33
2019-05-26T01:13:16.192Z,1012.37
2019-05-26T01:14:16.174Z,1012.37
2019-05-26T01:15:16.163Z,1012.34
2019-05-26T01:16:16.176Z,1012.38
2019-05-26T01:17:16.168Z,1012.37
2019-05-26T01:18:16.125Z,1012.39
2019-05-26T01:19:16.122Z,1012.34
2019-05-26T01:20:16.107Z,1012.37
2019-05-26T01:21:16.110Z,1012.36
2019-05-26T01:22:16.138Z,1012.36
2019-05-26T01:23:16.079Z,1012.36
2019-05-26T01:24:16.113Z,1012.37
2019-05-26T01:25:16.134Z,1012.33
2019-05-26T01:26:16.046Z,1012.34
2019-05-26T01:27:16.030Z,1012.36
2019-05-26T01:28:16.104Z,1012.34
2019-05-26T01:29:16.033Z,1012.35
2019-05-26T01:30:16.002Z,1012.34
2019-05-26T01:31:16.020Z,1012.31
2019-05-26T01:32:16.018Z,1012.32
2019-05-26T01:33:16.051Z,1012.32
2019-05-26T01:34:15.956Z,1012.33
2019-05-26T01:35:15.953Z,1012.33
2019-05-26T01:36:16.004Z,1012.34
2019-05-26T01:37:15.936Z,1012.32
2019-05-26T01:38:23.971Z,1012.32
2019-05-26T01:39:16.922Z,1012.29
2019-05-26T01:40:15.908Z,1012.20
2019-05-26T01:41:15.885Z,1012.25
2019-05-26T01:42:15.876Z,1012.25
2019-05-26T01:43:15.916Z,1012.34
2019-05-26T01:44:15.848Z,1012.27
2019-05-26T01:45:15.861Z,1012.27
2019-05-26T01:46:15.843Z,1012.29
2019-05-26T01:47:15.829Z,1012.30
2019-05-26T01:48:15.809Z,1012.28
2019-05-26T01:49:15.847Z,1012.31
2019-05-26T01:50:15.788Z,1012.30
2019-05-26T01:51:15.782Z,1012.28
2019-05-26T01:52:15.828Z,1012.32
2019-05-26T01:53:15.779Z,1012.33
2019-05-26T01:54:15.771Z,1012.28
2019-05-26T01:55:24.313Z,1012.28
2019-05-26T01:56:15.739Z,1012.27
2019-05-26T01:57:15.709Z,1012.28
2019-05-26T01:58:15.701Z,1012.33
2019-05-26T01:59:15.709Z,1012.27
2019-05-26T02:00:15.677Z,1012.26
2019-05-26T02:01:15.670Z,1012.31
2019-05-26T02:02:15.663Z,1012.36
2019-05-26T02:03:15.647Z,1012.36
2019-05-26T02:04:15.675Z,1012.31
2019-05-26T02:05:15.623Z,1012.29
2019-05-26T02:06:15.615Z,1012.37
2019-05-26T02:07:15.610Z,1012.36
2019-05-26T02:08:15.598Z,1012.35
2019-05-26T02:09:15.604Z,1012.38
2019-05-26T02:10:15.584Z,1012.40
2019-05-26T02:11:15.558Z,1012.40
2019-05-26T02:12:15.549Z,1012.33
2019-05-26T02:13:15.539Z,1012.37
2019-05-26T02:14:15.558Z,1012.38
2019-05-26T02:15:15.517Z,1012.38
2019-05-26T02:16:15.512Z,1012.35
2019-05-26T02:17:15.501Z,1012.33
2019-05-26T02:18:15.495Z,1012.31
2019-05-26T02:19:15.496Z,1012.27
2019-05-26T02:20:15.467Z,1012.34
2019-05-26T02:21:15.455Z,1012.29
2019-05-26T02:22:15.446Z,1012.30
2019-05-26T02:23:15.431Z,1012.27
2019-05-26T02:24:15.450Z,1012.29
2019-05-26T02:25:15.481Z,1012.26
2019-05-26T02:26:15.415Z,1012.26
2019-05-26T02:27:15.393Z,1012.21
2019-05-26T02:28:15.386Z,1012.24
2019-05-26T02:29:15.406Z,1012.18
2019-05-26T02:30:15.363Z,1012.21
2019-05-26T02:31:15.351Z,1012.23
2019-05-26T02:32:15.355Z,1012.23
2019-05-26T02:33:15.331Z,1012.18
2019-05-26T02:34:15.340Z,1012.17
2019-05-26T02:35:15.304Z,1012.15
2019-05-26T02:36:15.302Z,1012.17
2019-05-26T02:37:15.301Z,1012.19
2019-05-26T02:38:15.276Z,1012.16
2019-05-26T02:39:15.265Z,1012.14
2019-05-26T02:40:15.271Z,1012.16
2019-05-26T02:41:15.248Z,1012.19
2019-05-26T02:42:15.230Z,1012.19
2019-05-26T02:43:15.221Z,1012.20
2019-05-26T02:44:15.217Z,1012.22
2019-05-26T02:45:15.220Z,1012.17
2019-05-26T02:46:15.194Z,1012.18
2019-05-26T02:47:15.178Z,1012.16
2019-05-26T02:48:15.176Z,1012.18
2019-05-26T02:49:15.164Z,1012.16
2019-05-26T02:50:15.168Z,1012.12
2019-05-26T02:51:15.147Z,1012.15
2019-05-26T02:52:15.129Z,1012.09
2019-05-26T02:53:15.141Z,1012.14
2019-05-26T02:54:15.102Z,1012.17
2019-05-26T02:55:15.122Z,1012.12
2019-05-26T02:56:15.088Z,1012.06
2019-05-26T02:57:15.074Z,1012.08
2019-05-26T02:58:15.066Z,1012.05
2019-05-26T02:59:15.048Z,1012.05
2019-05-26T03:00:15.079Z,1012.05
2019-05-26T03:01:15.033Z,1012.03
2019-05-26T03:02:15.019Z,1012.02
2019-05-26T03:03:15.114Z,1012.07
2019-05-26T03:04:14.994Z,1012.01
2019-05-26T03:05:15.018Z,1012.07
2019-05-26T03:06:14.976Z,1012.06
2019-05-26T03:07:14.966Z,1012.06
2019-05-26T03:08:14.962Z,1012.05
2019-05-26T03:09:22.412Z,1012.02
2019-05-26T03:10:15.963Z,1012.06
2019-05-26T03:11:14.922Z,1012.00
2019-05-26T03:12:14.919Z,1011.99
2019-05-26T03:13:14.903Z,1012.04
2019-05-26T03:14:14.889Z,1012.07
2019-05-26T03:15:14.904Z,1012.01
2019-05-26T03:16:14.873Z,1012.05
2019-05-26T03:17:14.864Z,1011.98
2019-05-26T03:18:14.870Z,1011.97
2019-05-26T03:19:14.837Z,1011.98
2019-05-26T03:20:14.824Z,1012.08
2019-05-26T03:21:14.845Z,1012.03
2019-05-26T03:22:14.810Z,1011.98
2019-05-26T03:23:14.795Z,1011.99
2019-05-26T03:24:14.790Z,1012.01
2019-05-26T03:25:14.781Z,1012.00
2019-05-26T03:26:14.784Z,1012.02
2019-05-26T03:27:14.770Z,1012.02
2019-05-26T03:28:14.754Z,1012.02
2019-05-26T03:29:14.732Z,1012.10
2019-05-26T03:30:14.725Z,1012.05
2019-05-26T03:31:14.730Z,1012.07
2019-05-26T03:32:14.725Z,1012.06
2019-05-26T03:33:14.689Z,1012.12
2019-05-26T03:34:14.685Z,1012.08
2019-05-26T03:35:14.712Z,1012.10
2019-05-26T03:36:14.678Z,1012.10
2019-05-26T03:37:14.655Z,1012.09
2019-05-26T03:38:14.634Z,1012.06
2019-05-26T03:39:14.626Z,1012.06
2019-05-26T03:40:14.611Z,1012.09
2019-05-26T03:41:15.630Z,1012.11
2019-05-26T03:42:14.603Z,1012.10
2019-05-26T03:43:14.585Z,1012.09
2019-05-26T03:44:14.570Z,1012.11
2019-05-26T03:45:14.563Z,1012.07
2019-05-26T03:46:14.584Z,1012.14
2019-05-26T03:47:16.817Z,1012.12
2019-05-26T03:48:14.533Z,1012.08
2019-05-26T03:49:14.529Z,1012.10
2019-05-26T03:50:14.533Z,1012.07
2019-05-26T03:51:14.544Z,1012.08
2019-05-26T03:52:14.492Z,1012.12
2019-05-26T03:53:14.492Z,1012.05
2019-05-26T03:54:14.465Z,1012.07
2019-05-26T03:55:14.466Z,1012.07
2019-05-26T03:56:14.443Z,1012.09
2019-05-26T03:57:14.460Z,1012.03
2019-05-26T03:58:14.427Z,1012.07
2019-05-26T03:59:14.431Z,1012.10
2019-05-26T04:00:14.405Z,1012.06
2019-05-26T04:01:14.394Z,1012.03
2019-05-26T04:02:14.400Z,1012.02
2019-05-26T04:03:14.370Z,1012.00
2019-05-26T04:04:14.361Z,1012.06
2019-05-26T04:05:14.355Z,1011.99
2019-05-26T04:06:14.385Z,1012.01
2019-05-26T04:07:14.352Z,1012.04
2019-05-26T04:08:14.328Z,1012.00
2019-05-26T04:09:14.304Z,1012.07
2019-05-26T04:10:14.294Z,1012.04
2019-05-26T04:11:14.311Z,1012.10
2019-05-26T04:12:14.276Z,1012.06
2019-05-26T04:13:14.266Z,1012.03
2019-05-26T04:14:14.281Z,1012.02
2019-05-26T04:15:14.258Z,1012.00
2019-05-26T04:16:14.257Z,1012.03
2019-05-26T04:17:14.220Z,1012.05
2019-05-26T04:18:14.210Z,1012.03
2019-05-26T04:19:14.204Z,1012.02
2019-05-26T04:20:14.190Z,1012.03
2019-05-26T04:21:14.202Z,1011.94
2019-05-26T04:22:14.172Z,1012.00
2019-05-26T04:23:14.165Z,1011.95
2019-05-26T04:24:14.148Z,1012.02
2019-05-26T04:25:14.133Z,1012.01
2019-05-26T04:26:14.124Z,1012.01
2019-05-26T04:27:14.135Z,1012.05
2019-05-26T04:28:14.118Z,1012.00
2019-05-26T04:29:14.092Z,1011.98
2019-05-26T04:30:14.084Z,1011.97
2019-05-26T04:31:14.071Z,1011.91
2019-05-26T04:32:14.091Z,1011.96
2019-05-26T04:33:14.050Z,1011.97
2019-05-26T04:34:14.049Z,1011.94
2019-05-26T04:35:14.030Z,1011.99
2019-05-26T04:36:14.029Z,1011.95
2019-05-26T04:37:14.042Z,1011.90
2019-05-26T04:38:14.001Z,1011.91
2019-05-26T04:39:14.003Z,1011.96
2019-05-26T04:40:26.418Z,1011.94
2019-05-26T04:41:14.982Z,1011.94
2019-05-26T04:42:14.625Z,1011.89
2019-05-26T04:43:15.117Z,1011.87
2019-05-26T04:44:13.930Z,1011.93
2019-05-26T04:45:13.935Z,1011.90
2019-05-26T04:46:13.958Z,1011.92
2019-05-26T04:47:13.924Z,1011.85
2019-05-26T04:48:13.892Z,1011.85
2019-05-26T04:49:13.881Z,1011.80
2019-05-26T04:50:13.868Z,1011.86
2019-05-26T04:51:13.862Z,1011.89
2019-05-26T04:52:13.880Z,1011.84
2019-05-26T04:53:13.836Z,1011.89
2019-05-26T04:54:13.825Z,1011.89
2019-05-26T04:55:13.813Z,1011.93
2019-05-26T04:56:13.821Z,1011.99
2019-05-26T04:57:13.818Z,1011.93
2019-05-26T04:58:13.790Z,1011.92
2019-05-26T04:59:13.775Z,1011.90
2019-05-26T05:00:13.777Z,1011.93
2019-05-26T05:01:13.760Z,1011.93
2019-05-26T05:02:13.742Z,1011.89
2019-05-26T05:03:13.751Z,1011.92
2019-05-26T05:04:13.724Z,1011.90
2019-05-26T05:05:13.706Z,1011.84
2019-05-26T05:06:13.710Z,1011.90
2019-05-26T05:07:13.687Z,1011.89
2019-05-26T05:08:13.699Z,1011.83
2019-05-26T05:09:13.668Z,1011.84
2019-05-26T05:10:13.660Z,1011.81
2019-05-26T05:11:13.649Z,1011.82
2019-05-26T05:12:13.634Z,1011.77
2019-05-26T05:13:14.705Z,1011.80
2019-05-26T05:14:13.610Z,1011.75
2019-05-26T05:15:13.606Z,1011.77
2019-05-26T05:16:13.589Z,1011.73
2019-05-26T05:17:13.590Z,1011.71
2019-05-26T05:18:13.589Z,1011.68
2019-05-26T05:19:13.558Z,1011.70
2019-05-26T05:20:13.552Z,1011.74
2019-05-26T05:21:13.567Z,1011.70
2019-05-26T05:22:13.525Z,1011.63
2019-05-26T05:23:13.541Z,1011.73
2019-05-26T05:24:13.507Z,1011.73
2019-05-26T05:25:15.262Z,1011.68
2019-05-26T05:26:13.487Z,1011.69
2019-05-26T05:27:13.475Z,1011.72
2019-05-26T05:28:13.493Z,1011.71
2019-05-26T05:29:13.453Z,1011.73
2019-05-26T05:30:13.441Z,1011.71
2019-05-26T05:31:13.449Z,1011.77
2019-05-26T05:32:13.425Z,1011.72
2019-05-26T05:33:13.415Z,1011.70
2019-05-26T05:34:13.424Z,1011.74
2019-05-26T05:35:13.405Z,1011.67
2019-05-26T05:36:13.382Z,1011.72
2019-05-26T05:37:13.366Z,1011.69
2019-05-26T05:38:13.357Z,1011.68
2019-05-26T05:39:13.369Z,1011.73
2019-05-26T05:40:13.352Z,1011.70
2019-05-26T05:41:13.328Z,1011.74
2019-05-26T05:42:13.313Z,1011.66
2019-05-26T05:43:13.306Z,1011.71
2019-05-26T05:44:13.325Z,1011.71
2019-05-26T05:45:13.282Z,1011.71
2019-05-26T05:46:13.272Z,1011.68
2019-05-26T05:47:13.261Z,1011.64
2019-05-26T05:48:13.255Z,1011.64
2019-05-26T05:49:13.275Z,1011.69
2019-05-26T05:50:13.230Z,1011.69
2019-05-26T05:51:13.228Z,1011.74
2019-05-26T05:52:13.216Z,1011.70
2019-05-26T05:53:13.201Z,1011.72
2019-05-26T05:54:13.236Z,1011.73
2019-05-26T05:55:13.179Z,1011.68
2019-05-26T05:56:13.166Z,1011.70
2019-05-26T05:57:13.155Z,1011.72
2019-05-26T05:58:13.150Z,1011.67
2019-05-26T05:59:13.177Z,1011.69
2019-05-26T06:00:13.128Z,1011.70
2019-05-26T06:01:13.116Z,1011.71
2019-05-26T06:02:13.107Z,1011.70
2019-05-26T06:03:13.093Z,1011.72
2019-05-26T06:04:13.126Z,1011.69
2019-05-26T06:05:13.073Z,1011.67
2019-05-26T06:06:13.060Z,1011.73
2019-05-26T06:07:13.053Z,1011.68
2019-05-26T06:08:13.049Z,1011.62
2019-05-26T06:09:13.029Z,1011.68
2019-05-26T06:10:13.042Z,1011.62
2019-05-26T06:11:16.786Z,1011.70
2019-05-26T06:12:12.999Z,1011.67
2019-05-26T06:13:13.005Z,1011.66
2019-05-26T06:14:12.976Z,1011.64
2019-05-26T06:15:13.761Z,1011.68
2019-05-26T06:16:12.954Z,1011.68
2019-05-26T06:17:12.968Z,1011.60
2019-05-26T06:18:12.932Z,1011.62
2019-05-26T06:19:12.922Z,1011.58
2019-05-26T06:20:12.954Z,1011.63
2019-05-26T06:21:12.902Z,1011.59
2019-05-26T06:22:12.915Z,1011.60
2019-05-26T06:23:12.884Z,1011.58
2019-05-26T06:24:12.873Z,1011.58
2019-05-26T06:25:12.864Z,1011.59
2019-05-26T06:26:12.883Z,1011.59
2019-05-26T06:27:12.840Z,1011.60
2019-05-26T06:28:12.831Z,1011.56
2019-05-26T06:29:12.819Z,1011.59
2019-05-26T06:30:12.808Z,1011.53
2019-05-26T06:31:12.821Z,1011.51
2019-05-26T06:32:13.136Z,1011.48
2019-05-26T06:33:12.775Z,1011.50
2019-05-26T06:34:12.770Z,1011.46
2019-05-26T06:35:12.777Z,1011.45
2019-05-26T06:36:12.776Z,1011.44
2019-05-26T06:37:12.731Z,1011.47
2019-05-26T06:38:12.728Z,1011.42
2019-05-26T06:39:12.713Z,1011.46
2019-05-26T06:40:12.728Z,1011.43
2019-05-26T06:41:12.714Z,1011.41
2019-05-26T06:42:13.266Z,1011.45
2019-05-26T06:43:12.675Z,1011.44
2019-05-26T06:44:12.666Z,1011.43
2019-05-26T06:45:12.650Z,1011.43
2019-05-26T06:46:12.663Z,1011.45
2019-05-26T06:47:12.630Z,1011.39
2019-05-26T06:48:12.617Z,1011.40
2019-05-26T06:49:12.614Z,1011.39
2019-05-26T06:50:12.594Z,1011.40
2019-05-26T06:51:12.613Z,1011.41
2019-05-26T06:52:12.578Z,1011.43
2019-05-26T06:53:12.564Z,1011.42
2019-05-26T06:54:12.567Z,1011.39
2019-05-26T06:55:12.542Z,1011.40
2019-05-26T06:56:12.535Z,1011.44
2019-05-26T06:57:12.544Z,1011.40
2019-05-26T06:58:12.513Z,1011.43
2019-05-26T06:59:12.503Z,1011.38
2019-05-26T07:00:12.489Z,1011.40
2019-05-26T07:01:12.478Z,1011.42
2019-05-26T07:02:12.485Z,1011.45
2019-05-26T07:03:12.480Z,1011.47
2019-05-26T07:04:12.451Z,1011.50
2019-05-26T07:05:12.439Z,1011.47
2019-05-26T07:06:12.422Z,1011.43
2019-05-26T07:07:12.442Z,1011.44
2019-05-26T07:08:12.403Z,1011.42
2019-05-26T07:09:12.393Z,1011.40
2019-05-26T07:10:12.387Z,1011.42
2019-05-26T07:11:12.370Z,1011.39
2019-05-26T07:12:12.390Z,1011.38
2019-05-26T07:13:12.352Z,1011.40
2019-05-26T07:14:12.340Z,1011.41
2019-05-26T07:15:12.332Z,1011.47
2019-05-26T07:16:12.323Z,1011.42
2019-05-26T07:17:12.464Z,1011.46
2019-05-26T07:18:12.393Z,1011.44
2019-05-26T07:19:12.397Z,1011.42
2019-05-26T07:20:12.375Z,1011.43
2019-05-26T07:21:12.266Z,1011.46
2019-05-26T07:22:12.300Z,1011.43
2019-05-26T07:23:12.349Z,1011.40
2019-05-26T07:24:12.248Z,1011.38
2019-05-26T07:25:12.230Z,1011.38
2019-05-26T07:26:12.208Z,1011.38
2019-05-26T07:27:12.203Z,1011.39
2019-05-26T07:28:12.232Z,1011.38
2019-05-26T07:29:12.175Z,1011.38
2019-05-26T07:30:12.166Z,1011.39
2019-05-26T07:31:12.155Z,1011.40
2019-05-26T07:32:12.169Z,1011.42
2019-05-26T07:33:12.676Z,1011.43
2019-05-26T07:34:12.123Z,1011.43
2019-05-26T07:35:12.116Z,1011.43
2019-05-26T07:36:12.101Z,1011.47
2019-05-26T07:37:12.115Z,1011.43
2019-05-26T07:38:12.110Z,1011.38
2019-05-26T07:39:12.075Z,1011.40
2019-05-26T07:40:12.062Z,1011.40
2019-05-26T07:41:12.066Z,1011.33
2019-05-26T07:42:12.043Z,1011.38
2019-05-26T07:43:12.053Z,1011.34
2019-05-26T07:44:12.017Z,1011.37
2019-05-26T07:45:12.009Z,1011.41
2019-05-26T07:46:12.016Z,1011.35
2019-05-26T07:47:11.988Z,1011.41
2019-05-26T07:48:12.003Z,1011.46
2019-05-26T07:49:11.970Z,1011.40
2019-05-26T07:50:11.953Z,1011.38
2019-05-26T07:51:11.966Z,1011.37
2019-05-26T07:52:11.930Z,1011.36
2019-05-26T07:53:11.954Z,1011.36
2019-05-26T07:54:24.593Z,1011.37
2019-05-26T07:55:12.897Z,1011.35
2019-05-26T07:56:11.905Z,1011.37
2019-05-26T07:57:11.882Z,1011.34
2019-05-26T07:58:11.898Z,1011.30
2019-05-26T07:59:11.856Z,1011.37
2019-05-26T08:00:11.847Z,1011.37
2019-05-26T08:01:11.846Z,1011.41
2019-05-26T08:02:11.824Z,1011.36
2019-05-26T08:03:11.835Z,1011.29
2019-05-26T08:04:11.804Z,1011.35
2019-05-26T08:05:11.793Z,1011.37
2019-05-26T08:06:11.782Z,1011.35
2019-05-26T08:07:11.773Z,1011.42
2019-05-26T08:08:13.424Z,1011.34
2019-05-26T08:09:11.761Z,1011.31
2019-05-26T08:10:11.738Z,1011.35
2019-05-26T08:11:11.731Z,1011.30
2019-05-26T08:12:24.952Z,1011.31
2019-05-26T08:13:12.727Z,1011.28
2019-05-26T08:14:11.700Z,1011.29
2019-05-26T08:15:11.688Z,1011.21
2019-05-26T08:16:11.673Z,1011.28
2019-05-26T08:17:11.662Z,1011.29
2019-05-26T08:18:11.691Z,1011.27
2019-05-26T08:19:11.642Z,1011.25
2019-05-26T08:20:11.677Z,1011.27
2019-05-26T08:21:11.634Z,1011.28
2019-05-26T08:22:11.614Z,1011.24
2019-05-26T08:23:11.640Z,1011.26
2019-05-26T08:24:11.589Z,1011.26
2019-05-26T08:25:11.578Z,1011.17
2019-05-26T08:26:11.567Z,1011.15
2019-05-26T08:27:11.563Z,1011.15
2019-05-26T08:28:11.576Z,1011.12
2019-05-26T08:29:11.554Z,1011.10
2019-05-26T08:30:11.544Z,1011.13
2019-05-26T08:31:13.476Z,1011.11
2019-05-26T08:32:11.527Z,1011.17
2019-05-26T08:33:11.493Z,1011.15
2019-05-26T08:34:11.601Z,1011.12
2019-05-26T08:35:11.472Z,1011.11
2019-05-26T08:36:11.465Z,1011.09
2019-05-26T08:37:11.470Z,1011.04
2019-05-26T08:38:11.440Z,1011.03
2019-05-26T08:39:11.454Z,1010.95
2019-05-26T08:40:11.429Z,1010.87
2019-05-26T08:41:11.425Z,1010.88
2019-05-26T08:42:24.590Z,1010.94
2019-05-26T08:43:12.386Z,1010.90
2019-05-26T08:44:11.397Z,1010.97
2019-05-26T08:45:11.369Z,1010.93
2019-05-26T08:46:11.374Z,1010.91
2019-05-26T08:47:11.351Z,1010.91
2019-05-26T08:48:11.339Z,1010.94
2019-05-26T08:49:11.353Z,1010.93
2019-05-26T08:50:11.325Z,1010.92
2019-05-26T08:51:11.310Z,1010.86
2019-05-26T08:52:11.291Z,1010.87
2019-05-26T08:53:11.285Z,1010.85
2019-05-26T08:54:11.272Z,1010.79
2019-05-26T08:55:11.300Z,1010.94
2019-05-26T08:56:11.249Z,1010.84
2019-05-26T08:57:11.248Z,1010.83
2019-05-26T08:58:11.234Z,1010.83
2019-05-26T08:59:11.235Z,1010.77
2019-05-26T09:00:11.228Z,1010.82
2019-05-26T09:01:11.198Z,1010.86
2019-05-26T09:02:11.188Z,1010.83
2019-05-26T09:03:11.186Z,1010.77
2019-05-26T09:04:11.209Z,1010.77
2019-05-26T09:05:11.154Z,1010.87
2019-05-26T09:06:11.151Z,1010.84
2019-05-26T09:07:11.140Z,1010.95
2019-05-26T09:08:11.137Z,1010.88
2019-05-26T09:09:11.143Z,1010.90
2019-05-26T09:10:11.102Z,1010.80
2019-05-26T09:11:11.089Z,1010.81
2019-05-26T09:12:11.082Z,1010.78
2019-05-26T09:13:11.086Z,1010.78
2019-05-26T09:14:11.062Z,1010.78
2019-05-26T09:15:11.080Z,1010.75
2019-05-26T09:16:11.038Z,1010.76
2019-05-26T09:17:11.133Z,1010.76
2019-05-26T09:18:11.025Z,1010.77
2019-05-26T09:19:11.008Z,1010.73
2019-05-26T09:20:11.946Z,1010.76
2019-05-26T09:21:10.984Z,1010.72
2019-05-26T09:22:11.052Z,1010.71
2019-05-26T09:23:10.962Z,1010.72
2019-05-26T09:24:10.953Z,1010.69
2019-05-26T09:25:10.962Z,1010.73
2019-05-26T09:26:10.944Z,1010.77
2019-05-26T09:27:10.925Z,1010.69
2019-05-26T09:28:10.913Z,1010.76
2019-05-26T09:29:10.899Z,1010.74
2019-05-26T09:30:10.911Z,1010.72
2019-05-26T09:31:10.893Z,1010.68
2019-05-26T09:32:10.870Z,1010.72
2019-05-26T09:33:10.856Z,1010.74
2019-05-26T09:34:10.848Z,1010.72
2019-05-26T09:35:10.995Z,1010.72
2019-05-26T09:36:10.828Z,1010.74
2019-05-26T09:37:10.816Z,1010.69
2019-05-26T09:38:10.803Z,1010.70
2019-05-26T09:39:10.795Z,1010.65
2019-05-26T09:40:10.843Z,1010.68
2019-05-26T09:41:10.821Z,1010.65
2019-05-26T09:42:10.763Z,1010.69
2019-05-26T09:43:15.979Z,1010.62
2019-05-26T09:44:11.746Z,1010.62
2019-05-26T09:45:10.731Z,1010.59
2019-05-26T09:46:10.740Z,1010.60
2019-05-26T09:47:10.714Z,1010.61
2019-05-26T09:48:10.741Z,1010.57
2019-05-26T09:49:10.698Z,1010.57
2019-05-26T09:50:10.680Z,1010.59
2019-05-26T09:51:10.710Z,1010.61
2019-05-26T09:52:10.653Z,1010.67
2019-05-26T09:53:10.645Z,1010.57
2019-05-26T09:54:12.614Z,1010.58
2019-05-26T09:55:10.626Z,1010.63
2019-05-26T09:56:10.637Z,1010.57
2019-05-26T09:57:10.626Z,1010.53
2019-05-26T09:58:10.589Z,1010.63
2019-05-26T09:59:10.580Z,1010.61
2019-05-26T10:00:10.569Z,1010.60
2019-05-26T10:01:10.588Z,1010.56
2019-05-26T10:02:10.548Z,1010.56
2019-05-26T10:03:10.535Z,1010.53
2019-05-26T10:04:10.528Z,1010.55
2019-05-26T10:05:10.514Z,1010.49
2019-05-26T10:06:10.572Z,1010.48
2019-05-26T10:07:13.482Z,1010.46
2019-05-26T10:08:11.495Z,1010.50
2019-05-26T10:09:10.478Z,1010.50
2019-05-26T10:10:10.464Z,1010.46
2019-05-26T10:11:10.490Z,1010.51
2019-05-26T10:12:10.441Z,1010.46
2019-05-26T10:13:10.512Z,1010.51
2019-05-26T10:14:10.431Z,1010.48
2019-05-26T10:15:10.412Z,1010.45
2019-05-26T10:16:10.437Z,1010.49
2019-05-26T10:17:10.388Z,1010.48
2019-05-26T10:18:10.375Z,1010.42
2019-05-26T10:19:10.370Z,1010.44
2019-05-26T10:20:10.370Z,1010.48
2019-05-26T10:21:10.378Z,1010.44
2019-05-26T10:22:10.338Z,1010.46
2019-05-26T10:23:10.325Z,1010.46
2019-05-26T10:24:10.318Z,1010.45
2019-05-26T10:25:10.343Z,1010.43
2019-05-26T10:26:10.327Z,1010.44
2019-05-26T10:27:10.283Z,1010.43
2019-05-26T10:28:10.272Z,1010.46
2019-05-26T10:29:10.277Z,1010.52
2019-05-26T10:30:10.257Z,1010.43
2019-05-26T10:31:10.269Z,1010.42
2019-05-26T10:32:10.229Z,1010.44
2019-05-26T10:33:10.232Z,1010.44
2019-05-26T10:34:13.598Z,1010.39
2019-05-26T10:35:10.204Z,1010.47
2019-05-26T10:36:10.188Z,1010.47
2019-05-26T10:37:10.215Z,1010.48
2019-05-26T10:38:10.198Z,1010.52
2019-05-26T10:39:10.159Z,1010.42
2019-05-26T10:40:10.149Z,1010.47
2019-05-26T10:41:10.150Z,1010.40
2019-05-26T10:42:10.145Z,1010.39
2019-05-26T10:43:10.116Z,1010.44
2019-05-26T10:44:10.103Z,1010.44
2019-05-26T10:45:10.094Z,1010.44
2019-05-26T10:46:10.080Z,1010.37
2019-05-26T10:47:10.113Z,1010.45
2019-05-26T10:48:10.062Z,1010.46
2019-05-26T10:49:10.056Z,1010.43
2019-05-26T10:50:10.041Z,1010.39
2019-05-26T10:51:10.027Z,1010.40
2019-05-26T10:52:10.046Z,1010.42
2019-05-26T10:53:10.006Z,1010.42
2019-05-26T10:54:09.995Z,1010.38
2019-05-26T10:55:09.986Z,1010.47
2019-05-26T10:56:09.984Z,1010.40
2019-05-26T10:57:10.027Z,1010.41
2019-05-26T10:58:09.956Z,1010.46
2019-05-26T10:59:09.941Z,1010.41
2019-05-26T11:00:09.934Z,1010.41
2019-05-26T11:01:09.923Z,1010.39
2019-05-26T11:02:09.958Z,1010.38
2019-05-26T11:03:09.909Z,1010.39
2019-05-26T11:04:09.888Z,1010.36
2019-05-26T11:05:09.881Z,1010.39
2019-05-26T11:06:09.912Z,1010.35
2019-05-26T11:07:09.917Z,1010.39
2019-05-26T11:08:09.849Z,1010.38
2019-05-26T11:09:09.842Z,1010.37
2019-05-26T11:10:09.825Z,1010.34
2019-05-26T11:11:09.814Z,1010.33
2019-05-26T11:12:09.842Z,1010.30
2019-05-26T11:13:09.796Z,1010.29
2019-05-26T11:14:09.781Z,1010.26
2019-05-26T11:15:09.779Z,1010.31
2019-05-26T11:16:09.765Z,1010.23
2019-05-26T11:17:09.822Z,1010.23
2019-05-26T11:18:09.739Z,1010.25
2019-05-26T11:19:09.737Z,1010.21
2019-05-26T11:20:09.732Z,1010.19
2019-05-26T11:21:12.338Z,1010.16
2019-05-26T11:22:09.733Z,1010.16
2019-05-26T11:23:09.708Z,1010.11
2019-05-26T11:24:09.677Z,1010.11
2019-05-26T11:25:09.713Z,1010.10
2019-05-26T11:26:09.655Z,1010.09
2019-05-26T11:27:12.604Z,1010.07
2019-05-26T11:28:09.636Z,1010.10
2019-05-26T11:29:09.627Z,1010.02
2019-05-26T11:30:09.621Z,1010.05
2019-05-26T11:31:09.618Z,1010.05
2019-05-26T11:32:09.614Z,1010.05
2019-05-26T11:33:09.584Z,1010.02
2019-05-26T11:34:09.571Z,1009.98
2019-05-26T11:35:09.560Z,1009.97
2019-05-26T11:36:09.566Z,1009.99
2019-05-26T11:37:09.562Z,1010.00
2019-05-26T11:38:09.528Z,1009.97
2019-05-26T11:39:09.547Z,1010.02
2019-05-26T11:40:09.509Z,1009.95
2019-05-26T11:41:09.499Z,1009.93
2019-05-26T11:42:13.428Z,1009.93
2019-05-26T11:43:16.761Z,1009.92
2019-05-26T11:44:18.003Z,1009.88
2019-05-26T11:45:10.458Z,1009.89
2019-05-26T11:46:09.457Z,1009.91
2019-05-26T11:47:09.465Z,1009.94
2019-05-26T11:48:09.426Z,1009.88
2019-05-26T11:49:09.429Z,1009.93
2019-05-26T11:50:09.401Z,1009.88
2019-05-26T11:51:09.393Z,1009.91
2019-05-26T11:52:09.407Z,1009.87
2019-05-26T11:53:09.386Z,1009.89
2019-05-26T11:54:09.361Z,1009.94
2019-05-26T11:55:09.348Z,1009.85
2019-05-26T11:56:09.342Z,1009.92
2019-05-26T11:57:09.353Z,1009.86
2019-05-26T11:58:09.349Z,1009.85
2019-05-26T11:59:09.306Z,1009.88
2019-05-26T12:00:10.227Z,1009.81
2019-05-26T12:01:09.304Z,1009.86
2019-05-26T12:02:09.292Z,1009.78
2019-05-26T12:03:09.276Z,1009.74
2019-05-26T12:04:09.252Z,1009.72
2019-05-26T12:05:09.245Z,1009.81
2019-05-26T12:06:09.257Z,1009.79